createdAt,value
2022-07-28T00:00:24.329Z,17.38
2022-07-28T00:03:40.962Z,17.33
2022-07-28T00:06:45.990Z,17.29
2022-07-28T00:09:47.734Z,17.27
2022-07-28T00:12:49.620Z,17.25
2022-07-28T00:15:51.670Z,17.21
2022-07-28T00:18:53.502Z,17.18
2022-07-28T00:21:55.435Z,17.15
2022-07-28T00:24:57.204Z,17.11
2022-07-28T00:27:59.186Z,17.08
2022-07-28T00:31:05.002Z,17.05
2022-07-28T00:34:07.942Z,17.01
2022-07-28T00:37:14.442Z,16.97
2022-07-28T00:40:16.787Z,16.93
2022-07-28T00:43:18.454Z,16.88
2022-07-28T00:46:21.770Z,16.82
2022-07-28T00:49:24.580Z,16.77
2022-07-28T00:52:26.765Z,16.73
2022-07-28T00:55:28.544Z,16.70
2022-07-28T00:58:30.598Z,16.65
2022-07-28T01:01:32.437Z,16.62
2022-07-28T01:04:34.766Z,16.60
2022-07-28T01:07:46.743Z,16.56
2022-07-28T01:10:57.634Z,16.52
2022-07-28T01:14:10.967Z,16.48
2022-07-28T01:17:34.335Z,16.43
2022-07-28T01:20:40.090Z,16.36
2022-07-28T01:24:05.699Z,16.29
2022-07-28T01:27:31.948Z,16.23
2022-07-28T01:30:42.122Z,16.23
2022-07-28T01:33:48.313Z,16.21
2022-07-28T01:36:55.515Z,16.21
2022-07-28T01:40:01.765Z,16.24
2022-07-28T01:43:06.866Z,16.24
2022-07-28T01:46:10.954Z,16.22
2022-07-28T01:49:14.077Z,16.22
2022-07-28T01:52:16.612Z,16.18
2022-07-28T01:55:21.096Z,16.12
2022-07-28T01:58:23.824Z,16.07
2022-07-28T02:01:26.782Z,16.03
2022-07-28T02:04:29.374Z,15.99
2022-07-28T02:07:33.250Z,15.94
2022-07-28T02:10:35.221Z,15.90
2022-07-28T02:13:37.769Z,15.86
2022-07-28T02:16:43.830Z,15.82
2022-07-28T02:19:49.331Z,15.76
2022-07-28T02:22:52.464Z,15.70
2022-07-28T02:25:55.639Z,15.67
2022-07-28T02:28:58.997Z,15.65
2022-07-28T02:32:24.101Z,15.65
2022-07-28T02:35:57.515Z,15.67
2022-07-28T02:39:07.690Z,15.67
2022-07-28T02:42:14.117Z,15.67
2022-07-28T02:45:17.196Z,15.62
2022-07-28T02:48:22.045Z,15.54
2022-07-28T02:51:25.231Z,15.51
2022-07-28T02:54:28.797Z,15.51
2022-07-28T02:57:31.334Z,15.52
2022-07-28T03:00:33.136Z,15.51
2022-07-28T03:03:35.066Z,15.50
2022-07-28T03:06:36.894Z,15.45
2022-07-28T03:09:43.751Z,15.38
2022-07-28T03:12:45.961Z,15.33
2022-07-28T03:15:47.745Z,15.28
2022-07-28T03:18:49.448Z,15.25
2022-07-28T03:21:54.243Z,15.24
2022-07-28T03:24:56.829Z,15.25
2022-07-28T03:27:59.540Z,15.31
2022-07-28T03:31:04.574Z,15.38
2022-07-28T03:34:06.492Z,15.45
2022-07-28T03:37:13.685Z,15.50
2022-07-28T03:40:15.828Z,15.55
2022-07-28T03:43:20.106Z,15.59
2022-07-28T03:46:22.177Z,15.64
2022-07-28T03:49:24.154Z,15.68
2022-07-28T03:52:26.059Z,15.71
2022-07-28T03:55:27.849Z,15.73
2022-07-28T03:58:29.617Z,15.75
2022-07-28T04:01:31.511Z,15.76
2022-07-28T04:04:33.400Z,15.79
2022-07-28T04:07:35.028Z,15.80
2022-07-28T04:10:36.878Z,15.83
2022-07-28T04:13:38.758Z,15.84
2022-07-28T04:16:40.625Z,15.83
2022-07-28T04:19:42.445Z,15.84
2022-07-28T04:22:45.301Z,15.86
2022-07-28T04:25:47.082Z,15.90
2022-07-28T04:28:48.890Z,15.92
2022-07-28T04:31:50.927Z,15.94
2022-07-28T04:34:52.736Z,15.95
2022-07-28T04:38:00.875Z,15.96
2022-07-28T04:41:03.599Z,15.97
2022-07-28T04:44:05.532Z,15.96
2022-07-28T04:47:07.356Z,15.96
2022-07-28T04:50:11.028Z,15.98
2022-07-28T04:53:13.659Z,16.02
2022-07-28T04:56:15.379Z,16.07
2022-07-28T04:59:17.348Z,16.13
2022-07-28T05:02:21.111Z,16.20
2022-07-28T05:05:22.904Z,16.26
2022-07-28T05:08:25.722Z,16.33
2022-07-28T05:11:28.289Z,16.40
2022-07-28T05:14:29.937Z,16.51
2022-07-28T05:17:31.861Z,16.60
2022-07-28T05:20:33.722Z,16.72
2022-07-28T05:23:35.454Z,16.83
2022-07-28T05:26:37.601Z,16.95
2022-07-28T05:29:47.129Z,17.05
2022-07-28T05:32:50.777Z,17.17
2022-07-28T05:35:54.726Z,17.23
2022-07-28T05:38:56.605Z,17.27
2022-07-28T05:41:59.633Z,17.27
2022-07-28T05:45:15.084Z,17.32
2022-07-28T05:48:19.064Z,17.37
2022-07-28T05:51:20.851Z,17.49
2022-07-28T05:54:22.584Z,17.60
2022-07-28T05:57:24.659Z,17.67
2022-07-28T06:00:27.182Z,17.75
2022-07-28T06:03:32.541Z,17.91
2022-07-28T06:06:34.623Z,18.00
2022-07-28T06:09:36.457Z,18.09
2022-07-28T06:12:49.865Z,18.18
2022-07-28T06:15:52.920Z,18.23
2022-07-28T06:18:54.808Z,18.31
2022-07-28T06:21:56.596Z,18.41
2022-07-28T06:24:58.266Z,18.49
2022-07-28T06:28:02.988Z,18.68
2022-07-28T06:31:05.034Z,18.80
2022-07-28T06:34:07.156Z,19.00
2022-07-28T06:37:08.905Z,19.13
2022-07-28T06:40:12.461Z,19.26
2022-07-28T06:43:14.885Z,19.23
2022-07-28T06:46:19.727Z,19.32
2022-07-28T06:49:22.031Z,19.63
2022-07-28T06:52:24.187Z,20.16
2022-07-28T06:55:34.588Z,20.61
2022-07-28T06:58:37.706Z,21.14
2022-07-28T07:01:39.396Z,21.77
2022-07-28T07:04:41.150Z,22.10
2022-07-28T07:07:43.744Z,22.09
2022-07-28T07:10:45.877Z,22.39
2022-07-28T07:13:48.088Z,22.37
2022-07-28T07:16:50.827Z,22.42
2022-07-28T07:19:52.521Z,22.60
2022-07-28T07:22:54.585Z,22.71
2022-07-28T07:25:56.506Z,22.57
2022-07-28T07:28:58.306Z,22.33
2022-07-28T07:32:00.197Z,22.41
2022-07-28T07:35:02.083Z,22.68
2022-07-28T07:38:04.164Z,22.79
2022-07-28T07:41:05.995Z,22.99
2022-07-28T07:44:09.780Z,23.26
2022-07-28T07:47:11.550Z,23.74
2022-07-28T07:50:13.290Z,24.34
2022-07-28T07:53:15.104Z,24.69
2022-07-28T07:56:18.454Z,24.92
2022-07-28T07:59:20.194Z,25.12
2022-07-28T08:02:21.963Z,25.52
2022-07-28T08:05:35.523Z,25.83
2022-07-28T08:08:43.844Z,26.11
2022-07-28T08:11:48.259Z,25.93
2022-07-28T08:14:50.080Z,25.80
2022-07-28T08:17:51.825Z,25.94
2022-07-28T08:20:53.658Z,25.82
2022-07-28T08:23:55.999Z,26.20
2022-07-28T08:26:57.710Z,26.51
2022-07-28T08:29:59.438Z,26.62
2022-07-28T08:33:03.085Z,26.79
2022-07-28T08:36:05.381Z,27.18
2022-07-28T08:39:07.186Z,27.29
2022-07-28T08:42:17.900Z,27.45
2022-07-28T08:45:21.043Z,27.80
2022-07-28T08:48:23.684Z,27.86
2022-07-28T08:51:27.596Z,28.10
2022-07-28T08:54:29.809Z,28.35
2022-07-28T08:57:37.467Z,27.92
2022-07-28T09:00:39.296Z,27.64
2022-07-28T09:03:41.793Z,28.04
2022-07-28T09:06:44.089Z,28.43
2022-07-28T09:09:49.017Z,28.76
2022-07-28T09:12:51.233Z,29.11
2022-07-28T09:15:53.157Z,28.98
2022-07-28T09:18:56.627Z,28.92
2022-07-28T09:21:59.401Z,29.31
2022-07-28T09:25:03.965Z,29.24
2022-07-28T09:28:14.866Z,28.82
2022-07-28T09:31:18.225Z,28.19
2022-07-28T09:34:21.606Z,28.71
2022-07-28T09:37:27.631Z,29.10
2022-07-28T09:40:29.775Z,29.19
2022-07-28T09:43:35.552Z,29.61
2022-07-28T09:46:37.495Z,29.78
2022-07-28T09:49:44.889Z,29.72
2022-07-28T09:52:46.911Z,29.79
2022-07-28T09:55:55.283Z,29.32
2022-07-28T09:58:59.383Z,29.73
2022-07-28T10:02:02.615Z,29.45
2022-07-28T10:05:05.856Z,29.83
2022-07-28T10:08:07.636Z,30.27
2022-07-28T10:11:10.872Z,30.31
2022-07-28T10:14:13.802Z,29.70
2022-07-28T10:17:27.180Z,29.11
2022-07-28T10:20:29.770Z,28.85
2022-07-28T10:23:31.601Z,28.94
2022-07-28T10:26:44.155Z,29.33
2022-07-28T10:29:46.062Z,29.92
2022-07-28T10:32:47.762Z,30.20
2022-07-28T10:35:55.503Z,30.07
2022-07-28T10:39:10.367Z,30.03
2022-07-28T10:42:12.801Z,30.68
2022-07-28T10:45:15.580Z,30.92
2022-07-28T10:48:17.722Z,30.53
2022-07-28T10:51:21.368Z,29.98
2022-07-28T10:54:28.642Z,29.75
2022-07-28T10:57:31.611Z,29.95
2022-07-28T11:00:54.444Z,30.54
2022-07-28T11:03:56.299Z,31.25
2022-07-28T11:07:16.825Z,31.43
2022-07-28T11:10:19.690Z,31.06
2022-07-28T11:13:30.643Z,30.65
2022-07-28T11:16:36.901Z,30.32
2022-07-28T11:20:16.867Z,30.90
2022-07-28T11:23:40.857Z,31.81
2022-07-28T11:26:48.676Z,31.93
2022-07-28T11:29:50.417Z,32.10
2022-07-28T11:32:54.776Z,32.34
2022-07-28T11:35:57.251Z,32.58
2022-07-28T11:39:22.009Z,33.01
2022-07-28T11:42:26.746Z,32.92
2022-07-28T11:45:38.783Z,32.50
2022-07-28T11:48:45.141Z,32.93
2022-07-28T11:52:22.933Z,32.70
2022-07-28T11:55:55.745Z,32.65
2022-07-28T11:58:46.489Z,32.97
2022-07-28T12:01:54.610Z,32.66
2022-07-28T12:05:15.777Z,32.05
2022-07-28T12:08:17.750Z,32.14
2022-07-28T12:11:20.336Z,32.64
2022-07-28T12:14:29.182Z,32.92
2022-07-28T12:17:34.249Z,32.53
2022-07-28T12:20:45.433Z,32.80
2022-07-28T12:23:54.295Z,32.93
2022-07-28T12:26:57.717Z,33.03
2022-07-28T12:30:02.095Z,32.86
2022-07-28T12:33:16.478Z,32.72
2022-07-28T12:36:19.569Z,33.05
2022-07-28T12:39:26.115Z,33.30
2022-07-28T12:42:31.399Z,33.41
2022-07-28T12:45:33.344Z,33.03
2022-07-28T12:48:35.260Z,32.36
2022-07-28T12:51:40.385Z,31.94
2022-07-28T12:54:42.210Z,31.86
2022-07-28T12:57:55.298Z,31.24
2022-07-28T13:00:57.364Z,31.34
2022-07-28T13:03:59.107Z,31.51
2022-07-28T13:07:01.021Z,31.05
2022-07-28T13:10:05.469Z,30.91
2022-07-28T13:13:07.884Z,30.84
2022-07-28T13:16:18.711Z,31.11
2022-07-28T13:19:21.740Z,31.72
2022-07-28T13:22:30.051Z,31.55
2022-07-28T13:25:31.924Z,30.93
2022-07-28T13:28:34.830Z,30.60
2022-07-28T13:31:37.782Z,30.65
2022-07-28T13:34:39.813Z,30.78
2022-07-28T13:37:41.609Z,31.27
2022-07-28T13:40:43.394Z,31.73
2022-07-28T13:43:48.156Z,32.01
2022-07-28T13:46:50.816Z,31.53
2022-07-28T13:49:52.598Z,30.76
2022-07-28T13:52:54.636Z,30.38
2022-07-28T13:55:56.362Z,30.42
2022-07-28T13:59:11.067Z,30.76
2022-07-28T14:02:16.220Z,31.31
2022-07-28T14:05:18.423Z,31.44
2022-07-28T14:08:20.618Z,31.61
2022-07-28T14:11:27.322Z,31.71
2022-07-28T14:14:29.430Z,31.62
2022-07-28T14:17:44.737Z,30.87
2022-07-28T14:20:47.669Z,29.76
2022-07-28T14:23:49.497Z,29.45
2022-07-28T14:26:51.268Z,29.90
2022-07-28T14:29:53.156Z,29.87
2022-07-28T14:32:55.965Z,29.85
2022-07-28T14:35:58.390Z,29.91
2022-07-28T14:39:00.139Z,29.86
2022-07-28T14:42:01.877Z,29.68
2022-07-28T14:45:05.715Z,29.69
2022-07-28T14:48:07.480Z,30.18
2022-07-28T14:51:11.637Z,30.14
2022-07-28T14:54:13.613Z,30.09
2022-07-28T14:57:16.074Z,29.97
2022-07-28T15:00:18.285Z,29.80
2022-07-28T15:03:20.167Z,30.09
2022-07-28T15:06:21.963Z,29.85
2022-07-28T15:09:23.820Z,29.74
2022-07-28T15:12:25.685Z,29.47
2022-07-28T15:15:27.743Z,29.24
2022-07-28T15:18:29.580Z,29.11
2022-07-28T15:21:36.349Z,29.27
2022-07-28T15:24:38.499Z,29.54
2022-07-28T15:27:45.354Z,29.59
2022-07-28T15:30:52.666Z,30.15
2022-07-28T15:33:58.058Z,30.45
2022-07-28T15:37:01.136Z,30.48
2022-07-28T15:40:02.969Z,29.76
2022-07-28T15:43:04.933Z,29.39
2022-07-28T15:46:10.327Z,29.19
2022-07-28T15:49:12.435Z,29.13
2022-07-28T15:52:14.758Z,28.38
2022-07-28T15:55:16.634Z,28.16
2022-07-28T15:58:19.390Z,28.41
2022-07-28T16:01:22.368Z,28.44
2022-07-28T16:04:24.137Z,28.51
2022-07-28T16:07:28.350Z,28.36
2022-07-28T16:10:30.062Z,28.39
2022-07-28T16:13:37.134Z,28.38
2022-07-28T16:16:39.298Z,27.90
2022-07-28T16:19:50.208Z,27.61
2022-07-28T16:22:52.586Z,27.11
2022-07-28T16:25:54.416Z,26.77
2022-07-28T16:28:56.183Z,26.71
2022-07-28T16:31:57.934Z,26.89
2022-07-28T16:34:59.683Z,27.16
2022-07-28T16:38:05.535Z,27.11
2022-07-28T16:41:07.304Z,27.08
2022-07-28T16:44:09.030Z,26.81
2022-07-28T16:47:10.837Z,26.45
2022-07-28T16:50:12.624Z,26.19
2022-07-28T16:53:14.622Z,25.90
2022-07-28T16:56:19.437Z,25.75
2022-07-28T16:59:22.475Z,25.52
2022-07-28T17:02:24.354Z,25.46
2022-07-28T17:05:26.207Z,25.59
2022-07-28T17:08:28.024Z,26.22
2022-07-28T17:11:29.872Z,27.24
2022-07-28T17:14:31.707Z,28.03
2022-07-28T17:17:34.012Z,28.54
2022-07-28T17:20:39.641Z,28.89
2022-07-28T17:23:41.424Z,28.59
2022-07-28T17:27:35.074Z,27.41
2022-07-28T17:30:06.771Z,26.30
2022-07-28T17:33:09.144Z,25.63
2022-07-28T17:36:11.011Z,25.08
2022-07-28T17:39:13.205Z,24.61
2022-07-28T17:42:15.086Z,24.20
2022-07-28T17:45:16.811Z,23.83
2022-07-28T17:48:18.959Z,23.54
2022-07-28T17:51:20.903Z,23.25
2022-07-28T17:54:26.179Z,23.03
2022-07-28T17:57:28.046Z,22.81
2022-07-28T18:00:32.799Z,22.65
2022-07-28T18:03:56.871Z,22.49
2022-07-28T18:06:56.348Z,22.30
2022-07-28T18:09:58.115Z,22.15
2022-07-28T18:13:00.703Z,21.99
2022-07-28T18:16:02.752Z,21.85
2022-07-28T18:19:04.717Z,21.69
2022-07-28T18:22:06.468Z,21.55
2022-07-28T18:25:09.284Z,21.41
2022-07-28T18:28:11.376Z,21.29
2022-07-28T18:31:13.977Z,21.15
2022-07-28T18:34:16.245Z,21.04
2022-07-28T18:37:18.364Z,20.94
2022-07-28T18:40:24.494Z,20.85
2022-07-28T18:43:26.362Z,20.73
2022-07-28T18:46:29.110Z,20.63
2022-07-28T18:49:37.194Z,20.51
2022-07-28T18:52:41.131Z,20.36
2022-07-28T18:55:42.945Z,20.23
2022-07-28T18:58:44.923Z,20.09
2022-07-28T19:01:47.784Z,19.97
2022-07-28T19:04:49.562Z,19.82
2022-07-28T19:07:51.211Z,19.71
2022-07-28T19:10:53.012Z,19.57
2022-07-28T19:13:54.865Z,19.39
2022-07-28T19:16:56.920Z,19.24
2022-07-28T19:19:59.804Z,19.09
2022-07-28T19:23:05.143Z,18.99
2022-07-28T19:26:07.616Z,18.89
2022-07-28T19:29:09.735Z,18.78
2022-07-28T19:32:11.439Z,18.71
2022-07-28T19:35:13.838Z,18.61
2022-07-28T19:38:15.682Z,18.51
2022-07-28T19:41:17.441Z,18.41
2022-07-28T19:44:19.514Z,18.36
2022-07-28T19:47:23.439Z,18.28
2022-07-28T19:50:25.441Z,18.20
2022-07-28T19:53:31.989Z,18.08
2022-07-28T19:56:34.327Z,17.97
2022-07-28T19:59:36.073Z,17.85
2022-07-28T20:02:38.152Z,17.74
2022-07-28T20:05:40.025Z,17.64
2022-07-28T20:08:41.825Z,17.51
2022-07-28T20:11:43.655Z,17.40
2022-07-28T20:14:45.350Z,17.29
2022-07-28T20:17:47.135Z,17.16
2022-07-28T20:20:49.214Z,17.04
2022-07-28T20:23:53.265Z,16.93
2022-07-28T20:26:55.118Z,16.84
2022-07-28T20:29:58.936Z,16.77
2022-07-28T20:33:02.633Z,16.65
2022-07-28T20:36:04.553Z,16.56
2022-07-28T20:39:27.475Z,16.45
2022-07-28T20:42:28.239Z,16.19
2022-07-28T20:45:32.042Z,16.07
2022-07-28T20:48:34.148Z,16.09
2022-07-28T20:51:35.959Z,16.11
2022-07-28T20:54:37.935Z,16.13
2022-07-28T20:57:39.804Z,16.11
2022-07-28T21:00:41.713Z,16.08
2022-07-28T21:03:45.349Z,16.04
2022-07-28T21:06:51.014Z,16.04
2022-07-28T21:09:54.730Z,16.00
2022-07-28T21:12:56.466Z,15.98
2022-07-28T21:15:58.617Z,15.98
2022-07-28T21:19:00.606Z,15.92
2022-07-28T21:22:02.351Z,15.82
2022-07-28T21:25:04.553Z,15.70
2022-07-28T21:28:25.145Z,15.59
2022-07-28T21:31:27.165Z,15.52
2022-07-28T21:34:29.067Z,15.46
2022-07-28T21:37:30.807Z,15.40
2022-07-28T21:40:32.625Z,15.34
2022-07-28T21:43:34.657Z,15.27
2022-07-28T21:46:36.926Z,15.22
2022-07-28T21:49:38.808Z,15.15
2022-07-28T21:52:40.712Z,15.10
2022-07-28T21:55:42.631Z,15.11
2022-07-28T21:58:46.430Z,15.10
2022-07-28T22:01:48.898Z,15.09
2022-07-28T22:04:50.719Z,15.06
2022-07-28T22:07:53.354Z,15.01
2022-07-28T22:10:55.211Z,14.90
2022-07-28T22:13:57.028Z,14.70
2022-07-28T22:17:02.342Z,14.53
2022-07-28T22:20:05.429Z,14.48
2022-07-28T22:23:28.636Z,14.47
2022-07-28T22:26:29.830Z,14.44
2022-07-28T22:29:31.601Z,14.38
2022-07-28T22:32:33.299Z,14.31
2022-07-28T22:35:35.031Z,14.30
2022-07-28T22:38:37.076Z,14.31
2022-07-28T22:41:38.924Z,14.29
2022-07-28T22:44:40.984Z,14.27
2022-07-28T22:47:42.996Z,14.28
2022-07-28T22:50:45.083Z,14.34
2022-07-28T22:53:46.802Z,14.40
2022-07-28T22:56:51.572Z,14.45
2022-07-28T22:59:53.848Z,14.50
2022-07-28T23:02:55.721Z,14.54
2022-07-28T23:05:59.116Z,14.56
2022-07-28T23:09:00.932Z,14.59
2022-07-28T23:12:02.857Z,14.63
2022-07-28T23:15:06.086Z,14.63
2022-07-28T23:18:08.327Z,14.64
2022-07-28T23:21:11.415Z,14.63
2022-07-28T23:24:13.636Z,14.63
2022-07-28T23:27:15.968Z,14.63
2022-07-28T23:30:18.496Z,14.63
2022-07-28T23:33:55.979Z,14.64
2022-07-28T23:36:43.018Z,14.67
2022-07-28T23:39:45.000Z,14.67
2022-07-28T23:42:46.899Z,14.66
2022-07-28T23:45:48.718Z,14.66
2022-07-28T23:48:50.784Z,14.67
2022-07-28T23:51:52.555Z,14.70
2022-07-28T23:54:54.383Z,14.72
2022-07-28T23:57:56.052Z,14.73
